Time;durP1;ratioP1;P1;durP2;ratioP2;P2;SDS_P1;SDS_P2;PMS_P1;PMS_P2;Temp;Humidity;BMP_temperature;BMP_pressure;BME280_temperature;BME280_humidity;BME280_pressure;Samples;Min_cycle;Max_cycle;Signal;HPM_P1;HPM_P2
2022/05/08 00:01:35;;;;;;;31.50;19.15;;;;;;;;;;6205143;28;20631;-84
2022/05/08 00:04:35;;;;;;;34.58;17.55;;;;;;;;;;6190004;28;20037;-84
2022/05/08 00:07:35;;;;;;;32.07;17.87;;;;;;;;;;6189550;28;20369;-84
2022/05/08 00:10:35;;;;;;;26.33;15.13;;;;;;;;;;6202517;28;20358;-83
2022/05/08 00:13:35;;;;;;;32.65;17.35;;;;;;;;;;6193178;28;20666;-83
2022/05/08 00:16:36;;;;;;;29.07;18.47;;;;;;;;;;6199544;28;20014;-83
2022/05/08 00:19:36;;;;;;;31.57;16.57;;;;;;;;;;6217277;28;20260;-83
2022/05/08 00:22:42;;;;;;;37.03;19.07;;;;;;;;;;6217314;28;20265;-83
2022/05/08 00:25:42;;;;;;;32.40;17.80;;;;;;;;;;6253216;28;20288;-83
2022/05/08 00:28:42;;;;;;;30.20;17.63;;;;;;;;;;6199465;28;20500;-84
2022/05/08 00:31:42;;;;;;;31.15;19.20;;;;;;;;;;6216978;28;20775;-84
2022/05/08 00:34:43;;;;;;;30.93;18.83;;;;;;;;;;6199594;28;20018;-83
2022/05/08 00:37:43;;;;;;;38.03;21.93;;;;;;;;;;6222714;28;20261;-83
2022/05/08 00:40:43;;;;;;;42.17;22.97;;;;;;;;;;6211737;28;20377;-84
2022/05/08 00:43:43;;;;;;;39.70;23.03;;;;;;;;;;6175079;28;20369;-83
2022/05/08 00:46:44;;;;;;;46.08;25.80;;;;;;;;;;6175208;28;20262;-83
2022/05/08 00:49:44;;;;;;;38.50;24.30;;;;;;;;;;6192534;28;20433;-83
2022/05/08 00:52:44;;;;;;;44.78;23.52;;;;;;;;;;6193085;28;20258;-84
2022/05/08 00:55:45;;;;;;;43.25;24.95;;;;;;;;;;6207791;28;20037;-84
2022/05/08 00:58:48;;;;;;;43.65;23.08;;;;;;;;;;6199824;28;20010;-84
2022/05/08 01:01:48;;;;;;;32.60;19.77;;;;;;;;;;6235080;28;20021;-84
2022/05/08 01:04:48;;;;;;;33.90;19.03;;;;;;;;;;6241165;28;20024;-84
2022/05/08 01:07:48;;;;;;;34.57;18.63;;;;;;;;;;6241381;28;20252;-83
2022/05/08 01:10:49;;;;;;;30.15;16.90;;;;;;;;;;6241463;28;20337;-83
2022/05/08 01:13:49;;;;;;;29.50;17.92;;;;;;;;;;6223640;28;20036;-83
2022/05/08 01:16:49;;;;;;;36.83;21.02;;;;;;;;;;6216587;28;20026;-83
2022/05/08 01:19:50;;;;;;;34.07;20.50;;;;;;;;;;6217261;28;20034;-83
2022/05/08 01:22:50;;;;;;;38.00;22.03;;;;;;;;;;6201698;28;20265;-84
2022/05/08 01:25:51;;;;;;;36.95;22.20;;;;;;;;;;6204752;28;20365;-83
2022/05/08 01:28:52;;;;;;;39.42;22.63;;;;;;;;;;6220683;28;20069;-83
2022/05/08 01:31:53;;;;;;;39.50;21.90;;;;;;;;;;6220989;28;20059;-83
2022/05/08 01:34:53;;;;;;;44.78;26.55;;;;;;;;;;6221208;28;20058;-83
2022/05/08 01:37:54;;;;;;;48.78;25.77;;;;;;;;;;6231859;28;20017;-84
2022/05/08 01:40:55;;;;;;;50.05;26.95;;;;;;;;;;6247370;28;20029;-84
2022/05/08 01:43:55;;;;;;;45.22;26.77;;;;;;;;;;6331122;28;20032;-83
2022/05/08 01:50:15;;;;;;;38.97;22.73;;;;;;;;;;6349429;28;20269;-83
2022/05/08 01:53:15;;;;;;;40.47;22.92;;;;;;;;;;6330733;28;20497;-83
2022/05/08 01:56:15;;;;;;;35.63;20.07;;;;;;;;;;6257272;28;20045;-83
2022/05/08 01:59:15;;;;;;;53.67;25.38;;;;;;;;;;6227465;28;20264;-83
2022/05/08 02:02:16;;;;;;;54.83;28.90;;;;;;;;;;6196830;28;20046;-84
2022/05/08 02:05:16;;;;;;;54.42;29.65;;;;;;;;;;6194487;28;20341;-84
2022/05/08 02:08:17;;;;;;;53.97;31.02;;;;;;;;;;6215111;28;20645;-83
2022/05/08 02:11:17;;;;;;;48.65;26.30;;;;;;;;;;6244307;28;20109;-83
2022/05/08 02:14:17;;;;;;;51.88;28.83;;;;;;;;;;6240748;28;20388;-83
2022/05/08 02:17:18;;;;;;;46.70;27.33;;;;;;;;;;6219555;28;20029;-83
2022/05/08 02:20:18;;;;;;;40.17;23.73;;;;;;;;;;6220072;28;20339;-83
2022/05/08 02:23:18;;;;;;;32.17;20.37;;;;;;;;;;6219683;28;20026;-83
2022/05/08 02:26:18;;;;;;;34.67;21.07;;;;;;;;;;6219226;28;20352;-83
2022/05/08 02:29:18;;;;;;;37.70;21.27;;;;;;;;;;6219497;28;20338;-83
2022/05/08 02:32:19;;;;;;;36.20;19.70;;;;;;;;;;6219213;28;20261;-83
2022/05/08 02:35:23;;;;;;;43.58;21.67;;;;;;;;;;6219174;28;20029;-83
2022/05/08 02:38:24;;;;;;;37.97;22.65;;;;;;;;;;6286924;28;20035;-83
2022/05/08 02:41:25;;;;;;;38.95;20.05;;;;;;;;;;6309221;28;20022;-83
2022/05/08 02:44:25;;;;;;;38.45;21.77;;;;;;;;;;6226127;28;20025;-83
2022/05/08 02:47:25;;;;;;;37.93;22.63;;;;;;;;;;6226034;28;20388;-83
2022/05/08 02:50:26;;;;;;;36.27;19.70;;;;;;;;;;6226033;28;20714;-83
2022/05/08 02:53:26;;;;;;;35.53;18.77;;;;;;;;;;6243597;28;20668;-83
2022/05/08 02:59:45;;;;;;;34.15;20.02;;;;;;;;;;6238146;28;20261;-84
2022/05/08 03:02:46;;;;;;;36.65;21.05;;;;;;;;;;6226110;28;20460;-84
2022/05/08 03:05:47;;;;;;;38.10;23.00;;;;;;;;;;6225625;28;20022;-84
2022/05/08 03:08:50;;;;;;;39.28;23.50;;;;;;;;;;6216781;28;20099;-83
2022/05/08 03:11:50;;;;;;;40.22;24.83;;;;;;;;;;6219465;28;20064;-84
2022/05/08 03:14:51;;;;;;;43.08;26.38;;;;;;;;;;6210610;28;20030;-84
2022/05/08 03:17:51;;;;;;;41.50;22.30;;;;;;;;;;6193223;28;20034;-84
2022/05/08 03:20:51;;;;;;;36.67;23.07;;;;;;;;;;6194673;28;20660;-84
2022/05/08 03:23:52;;;;;;;42.90;23.10;;;;;;;;;;6194531;28;20570;-83
2022/05/08 03:26:52;;;;;;;43.53;24.55;;;;;;;;;;6193259;28;20034;-84
2022/05/08 03:29:52;;;;;;;45.00;24.37;;;;;;;;;;6193034;28;20026;-84
2022/05/08 03:32:52;;;;;;;42.23;21.80;;;;;;;;;;6193662;28;20258;-83
2022/05/08 03:35:53;;;;;;;36.25;20.88;;;;;;;;;;6193185;28;20258;-84
2022/05/08 03:38:53;;;;;;;38.05;23.30;;;;;;;;;;6198699;28;20075;-84
2022/05/08 03:41:53;;;;;;;39.77;22.57;;;;;;;;;;6194629;28;20033;-83
2022/05/08 03:44:54;;;;;;;38.47;23.03;;;;;;;;;;6193723;28;20280;-84
2022/05/08 03:47:54;;;;;;;38.28;21.35;;;;;;;;;;6193767;28;20272;-83
2022/05/08 03:50:55;;;;;;;42.80;23.65;;;;;;;;;;6193700;28;20109;-83
2022/05/08 03:53:55;;;;;;;33.95;19.02;;;;;;;;;;6193068;28;20086;-83
2022/05/08 03:56:55;;;;;;;30.97;21.07;;;;;;;;;;6193837;28;20113;-84
2022/05/08 03:59:55;;;;;;;35.37;20.37;;;;;;;;;;6197438;28;20269;-83
2022/05/08 04:02:55;;;;;;;35.97;19.92;;;;;;;;;;6218454;28;20269;-85
2022/05/08 04:05:56;;;;;;;34.45;20.10;;;;;;;;;;6217352;28;20052;-83
2022/05/08 04:08:56;;;;;;;26.23;18.27;;;;;;;;;;6228871;28;20049;-83
2022/05/08 04:11:56;;;;;;;33.50;18.57;;;;;;;;;;6243052;28;20029;-83
2022/05/08 04:14:57;;;;;;;37.42;23.08;;;;;;;;;;6233451;28;20276;-83
2022/05/08 04:17:57;;;;;;;35.88;21.77;;;;;;;;;;6193706;28;20478;-83
2022/05/08 04:20:58;;;;;;;33.88;21.42;;;;;;;;;;6195938;28;20030;-83
2022/05/08 04:27:17;;;;;;;32.65;20.05;;;;;;;;;;6216995;28;20433;-84
2022/05/08 04:30:17;;;;;;;29.58;20.80;;;;;;;;;;6217890;28;20029;-84
2022/05/08 04:33:18;;;;;;;36.50;23.50;;;;;;;;;;6217124;28;20026;-84
2022/05/08 04:36:18;;;;;;;34.53;22.05;;;;;;;;;;6216744;28;20774;-84
2022/05/08 04:39:19;;;;;;;35.90;23.70;;;;;;;;;;6239740;28;20064;-84
2022/05/08 04:42:19;;;;;;;37.25;23.02;;;;;;;;;;6212399;28;20117;-84
2022/05/08 04:45:19;;;;;;;39.00;23.97;;;;;;;;;;6182675;28;20413;-84
2022/05/08 04:48:19;;;;;;;37.33;22.40;;;;;;;;;;6175856;28;20749;-84
2022/05/08 04:51:19;;;;;;;42.03;22.67;;;;;;;;;;6175192;28;20649;-84
2022/05/08 04:54:20;;;;;;;36.43;23.80;;;;;;;;;;6195828;28;20624;-84
2022/05/08 04:57:20;;;;;;;35.85;25.13;;;;;;;;;;6218050;28;20802;-83
2022/05/08 05:00:21;;;;;;;41.37;25.93;;;;;;;;;;6239619;28;20030;-83
2022/05/08 05:03:22;;;;;;;48.63;27.23;;;;;;;;;;6190380;28;20283;-83
2022/05/08 05:06:22;;;;;;;41.97;26.00;;;;;;;;;;6186707;28;20026;-83
2022/05/08 05:09:22;;;;;;;44.03;27.20;;;;;;;;;;6219206;28;20307;-84
2022/05/08 05:12:23;;;;;;;39.10;25.70;;;;;;;;;;6235469;28;20261;-83
2022/05/08 05:15:26;;;;;;;37.90;25.33;;;;;;;;;;6203224;28;20314;-84
2022/05/08 05:18:26;;;;;;;47.38;28.17;;;;;;;;;;6203306;28;20422;-83
2022/05/08 05:21:26;;;;;;;48.63;29.27;;;;;;;;;;6207319;28;20030;-83
2022/05/08 05:24:28;;;;;;;47.40;27.23;;;;;;;;;;6220030;28;20410;-83
2022/05/08 05:27:28;;;;;;;45.45;27.85;;;;;;;;;;6179110;28;20029;-83
2022/05/08 05:30:29;;;;;;;35.13;23.87;;;;;;;;;;6178738;28;20117;-83
2022/05/08 05:33:29;;;;;;;38.57;25.50;;;;;;;;;;6188334;28;20015;-83
2022/05/08 05:36:29;;;;;;;32.70;24.27;;;;;;;;;;6188799;28;20014;-84
2022/05/08 05:39:29;;;;;;;34.20;25.60;;;;;;;;;;6232027;28;20544;-84
2022/05/08 05:42:31;;;;;;;38.20;24.43;;;;;;;;;;6207649;28;20374;-84
2022/05/08 05:45:31;;;;;;;35.85;24.23;;;;;;;;;;6215810;28;20018;-84
2022/05/08 05:48:34;;;;;;;36.63;26.37;;;;;;;;;;6200662;28;20456;-84
2022/05/08 05:51:34;;;;;;;34.90;25.88;;;;;;;;;;6199503;28;20129;-84
2022/05/08 05:54:35;;;;;;;37.77;24.97;;;;;;;;;;6189032;28;20059;-84
2022/05/08 05:57:36;;;;;;;38.43;26.27;;;;;;;;;;6200539;28;20018;-85
2022/05/08 06:00:36;;;;;;;40.88;27.92;;;;;;;;;;6208957;28;20026;-84
2022/05/08 06:03:38;;;;;;;35.23;24.93;;;;;;;;;;6203483;28;20030;-84
2022/05/08 06:06:38;;;;;;;38.13;27.00;;;;;;;;;;6208233;28;20620;-85
2022/05/08 06:09:39;;;;;;;40.63;30.03;;;;;;;;;;6190887;28;20085;-84
2022/05/08 06:12:39;;;;;;;39.80;28.47;;;;;;;;;;6187736;28;20057;-84
2022/05/08 06:15:39;;;;;;;40.47;28.53;;;;;;;;;;6184691;28;20485;-84
2022/05/08 06:18:39;;;;;;;38.17;30.93;;;;;;;;;;6201786;28;20536;-84
2022/05/08 06:21:39;;;;;;;36.53;26.80;;;;;;;;;;6180417;28;20026;-85
2022/05/08 06:24:40;;;;;;;34.60;26.67;;;;;;;;;;6215062;28;20037;-84
2022/05/08 06:27:40;;;;;;;36.33;26.10;;;;;;;;;;6194497;28;20026;-84
2022/05/08 06:30:40;;;;;;;42.30;31.40;;;;;;;;;;6197625;28;20690;-85
2022/05/08 06:33:42;;;;;;;;;;;;;;;;;;6199367;28;20105;-85
2022/05/08 06:36:42;;;;;;;40.13;31.08;;;;;;;;;;6214140;28;19941;-85
2022/05/08 06:39:42;;;;;;;30.50;25.33;;;;;;;;;;6196623;28;20082;-85
2022/05/08 06:42:43;;;;;;;36.30;27.60;;;;;;;;;;6200198;28;20026;-85
2022/05/08 06:45:44;;;;;;;31.70;24.02;;;;;;;;;;6199042;28;20038;-85
2022/05/08 06:48:44;;;;;;;29.13;20.53;;;;;;;;;;6182633;28;20091;-85
2022/05/08 06:51:46;;;;;;;30.85;23.30;;;;;;;;;;6206506;28;20075;-85
2022/05/08 06:54:47;;;;;;;26.33;20.00;;;;;;;;;;6185751;28;20030;-84
2022/05/08 06:57:47;;;;;;;30.80;23.88;;;;;;;;;;6180780;28;20018;-85
2022/05/08 07:04:07;;;;;;;28.23;18.25;;;;;;;;;;6204469;28;20029;-84
2022/05/08 07:07:07;;;;;;;24.48;18.27;;;;;;;;;;6179718;28;20022;-84
2022/05/08 07:10:08;;;;;;;21.07;17.67;;;;;;;;;;6201326;28;20095;-85
2022/05/08 07:13:08;;;;;;;24.17;19.15;;;;;;;;;;6176046;28;20261;-85
2022/05/08 07:16:08;;;;;;;15.30;10.23;;;;;;;;;;6222475;28;20071;-85
2022/05/08 07:19:09;;;;;;;17.87;10.40;;;;;;;;;;6203035;28;20026;-84
2022/05/08 07:22:09;;;;;;;14.93;11.80;;;;;;;;;;6181738;28;20010;-85
2022/05/08 07:25:11;;;;;;;13.17;9.47;;;;;;;;;;6218475;28;20336;-84
2022/05/08 07:28:12;;;;;;;14.63;10.43;;;;;;;;;;6216526;28;20030;-85
2022/05/08 07:31:12;;;;;;;14.63;8.93;;;;;;;;;;6185843;28;20103;-84
2022/05/08 07:37:32;;;;;;;15.82;8.90;;;;;;;;;;6204413;28;20019;-84
2022/05/08 07:40:33;;;;;;;14.43;10.10;;;;;;;;;;6191864;28;20029;-84
2022/05/08 07:43:33;;;;;;;13.23;9.73;;;;;;;;;;6189231;28;20272;-84
2022/05/08 07:46:34;;;;;;;13.10;8.33;;;;;;;;;;6198936;28;20401;-84
2022/05/08 07:49:34;;;;;;;11.93;7.97;;;;;;;;;;6197557;28;20038;-84
2022/05/08 07:52:38;;;;;;;10.13;7.20;;;;;;;;;;6198361;28;20030;-84
2022/05/08 07:55:39;;;;;;;13.25;8.15;;;;;;;;;;6191323;28;20013;-85
2022/05/08 07:58:39;;;;;;;16.60;8.30;;;;;;;;;;6196459;28;20049;-85
2022/05/08 08:01:39;;;;;;;13.30;7.77;;;;;;;;;;6184375;28;20006;-85
2022/05/08 08:04:41;;;;;;;11.60;7.03;;;;;;;;;;6199483;28;20011;-85
2022/05/08 08:07:41;;;;;;;11.90;8.07;;;;;;;;;;6207369;28;20029;-85
2022/05/08 08:10:41;;;;;;;10.17;6.83;;;;;;;;;;6231817;28;20384;-85
2022/05/08 08:13:42;;;;;;;10.05;6.53;;;;;;;;;;6223768;28;20303;-84
2022/05/08 08:16:42;;;;;;;12.87;8.07;;;;;;;;;;6218173;28;20010;-84
2022/05/08 08:19:42;;;;;;;9.90;6.70;;;;;;;;;;6216658;28;20018;-84
2022/05/08 08:22:42;;;;;;;11.40;5.60;;;;;;;;;;6213732;28;20025;-84
2022/05/08 08:25:45;;;;;;;7.13;5.03;;;;;;;;;;6196096;28;20542;-84
2022/05/08 08:28:45;;;;;;;7.88;5.05;;;;;;;;;;6192051;28;20026;-84
2022/05/08 08:31:45;;;;;;;8.93;4.90;;;;;;;;;;6191065;28;20015;-84
2022/05/08 08:34:45;;;;;;;9.87;4.73;;;;;;;;;;6192665;28;20441;-84
2022/05/08 08:37:46;;;;;;;10.27;5.73;;;;;;;;;;6266938;28;20015;-84
2022/05/08 08:40:48;;;;;;;10.27;5.53;;;;;;;;;;6326627;28;20019;-84
2022/05/08 08:50:37;;;;;;;7.75;4.75;;;;;;;;;;6241497;28;20113;-83
2022/05/08 08:53:37;;;;;;;8.00;5.13;;;;;;;;;;6241657;28;20081;-84
2022/05/08 08:56:37;;;;;;;8.87;4.70;;;;;;;;;;6219146;28;20052;-84
2022/05/08 08:59:37;;;;;;;;;;;;;;;;;;6217303;28;20018;-83
2022/05/08 09:02:38;;;;;;;6.82;3.00;;;;;;;;;;6241460;28;19909;-85
2022/05/08 09:05:38;;;;;;;;;;;;;;;;;;6241388;28;20082;-84
2022/05/08 09:08:38;;;;;;;7.72;3.58;;;;;;;;;;6222740;28;19920;-84
2022/05/08 09:11:38;;;;;;;5.07;3.70;;;;;;;;;;6218973;28;20025;-84
2022/05/08 09:14:38;;;;;;;10.73;2.87;;;;;;;;;;6216655;28;20537;-83
2022/05/08 09:17:42;;;;;;;9.87;4.80;;;;;;;;;;6216634;28;20477;-84
2022/05/08 09:20:48;;;;;;;6.63;4.22;;;;;;;;;;6199151;28;20018;-84
2022/05/08 09:24:04;;;;;;;7.70;4.60;;;;;;;;;;6254643;28;20037;-84
2022/05/08 09:27:12;;;;;;;9.18;4.55;;;;;;;;;;6191046;28;20394;-84
2022/05/08 09:30:12;;;;;;;9.65;4.75;;;;;;;;;;6192682;28;20378;-84
2022/05/08 09:33:26;;;;;;;8.23;5.00;;;;;;;;;;6192274;28;20054;-84
2022/05/08 09:36:27;;;;;;;11.70;5.43;;;;;;;;;;6202315;28;20256;-84
2022/05/08 09:39:27;;;;;;;7.90;4.90;;;;;;;;;;6216328;28;20103;-83
2022/05/08 09:42:34;;;;;;;9.60;5.50;;;;;;;;;;6212660;28;20029;-84
2022/05/08 09:45:34;;;;;;;11.95;6.63;;;;;;;;;;6227432;28;20090;-83
2022/05/08 09:48:35;;;;;;;11.33;6.23;;;;;;;;;;6245023;28;20418;-83
2022/05/08 09:51:35;;;;;;;10.70;6.20;;;;;;;;;;6244690;28;20613;-83
2022/05/08 09:54:36;;;;;;;9.43;5.27;;;;;;;;;;6199857;28;20018;-83
2022/05/08 09:57:36;;;;;;;9.93;5.33;;;;;;;;;;6194112;28;20370;-83
2022/05/08 10:00:39;;;;;;;11.32;5.65;;;;;;;;;;6208102;28;20018;-83
2022/05/08 10:03:43;;;;;;;8.00;4.97;;;;;;;;;;6208375;28;20026;-84
2022/05/08 10:06:43;;;;;;;9.65;5.45;;;;;;;;;;6187510;28;20029;-84
2022/05/08 10:16:41;;;;;;;11.38;5.32;;;;;;;;;;6209440;28;20030;-83
2022/05/08 10:19:43;;;;;;;12.10;5.95;;;;;;;;;;6205234;28;20041;-83
2022/05/08 10:22:48;;;;;;;12.82;6.70;;;;;;;;;;6211412;28;20022;-83
2022/05/08 10:26:08;;;;;;;15.80;8.57;;;;;;;;;;6218802;28;20137;-83
2022/05/08 10:29:12;;;;;;;16.75;8.43;;;;;;;;;;6208154;28;20034;-84
2022/05/08 10:32:14;;;;;;;13.05;6.45;;;;;;;;;;6211540;28;20067;-84
2022/05/08 10:35:28;;;;;;;10.50;4.90;;;;;;;;;;6201777;28;20141;-84
2022/05/08 10:38:28;;;;;;;9.73;4.65;;;;;;;;;;6199530;28;20489;-83
2022/05/08 10:41:44;;;;;;;9.03;5.43;;;;;;;;;;6202862;28;20018;-83
2022/05/08 10:44:45;;;;;;;10.52;5.60;;;;;;;;;;6220310;28;20257;-83
2022/05/08 10:47:45;;;;;;;9.75;5.57;;;;;;;;;;6217974;28;20025;-83
2022/05/08 10:50:49;;;;;;;13.07;5.30;;;;;;;;;;6217878;28;20026;-83
2022/05/08 10:53:50;;;;;;;8.73;4.95;;;;;;;;;;6200250;28;20128;-83
2022/05/08 10:56:50;;;;;;;11.40;6.40;;;;;;;;;;6230390;28;20069;-83
2022/05/08 10:59:50;;;;;;;15.87;7.73;;;;;;;;;;6240405;28;20025;-84
2022/05/08 11:03:09;;;;;;;16.00;7.10;;;;;;;;;;6217827;28;20034;-83
2022/05/08 11:06:17;;;;;;;16.45;7.28;;;;;;;;;;6207140;28;20037;-83
2022/05/08 11:09:18;;;;;;;11.82;6.35;;;;;;;;;;6208180;28;20132;-83
2022/05/08 11:12:19;;;;;;;12.65;6.65;;;;;;;;;;6209557;28;20026;-83
2022/05/08 11:15:20;;;;;;;13.48;5.80;;;;;;;;;;6189767;28;20019;-83
2022/05/08 11:18:22;;;;;;;8.57;4.63;;;;;;;;;;6184161;28;20076;-83
2022/05/08 11:21:22;;;;;;;4.45;3.10;;;;;;;;;;6193720;28;20273;-83
2022/05/08 11:24:23;;;;;;;5.30;2.90;;;;;;;;;;6207117;28;20525;-84
2022/05/08 11:27:23;;;;;;;6.38;3.53;;;;;;;;;;6182271;28;20380;-84
2022/05/08 11:30:34;;;;;;;9.00;4.17;;;;;;;;;;6198777;28;20086;-84
2022/05/08 11:36:54;;;;;;;4.15;2.80;;;;;;;;;;6225706;28;20030;-83
2022/05/08 11:39:54;;;;;;;4.67;2.70;;;;;;;;;;6224879;28;20029;-83
2022/05/08 11:42:54;;;;;;;4.70;2.97;;;;;;;;;;6234967;28;20049;-83
2022/05/08 11:45:59;;;;;;;8.17;2.83;;;;;;;;;;6243024;28;20675;-83
2022/05/08 11:48:59;;;;;;;8.73;2.80;;;;;;;;;;6224453;28;20597;-83
2022/05/08 11:52:03;;;;;;;5.60;3.40;;;;;;;;;;6206874;28;20076;-83
2022/05/08 11:55:05;;;;;;;4.00;2.85;;;;;;;;;;6202406;28;20469;-83
2022/05/08 11:58:05;;;;;;;5.93;3.17;;;;;;;;;;6223215;28;20033;-84
2022/05/08 12:01:06;;;;;;;7.80;4.33;;;;;;;;;;6236354;28;20029;-84
2022/05/08 12:04:22;;;;;;;6.40;3.40;;;;;;;;;;6242342;28;20049;-84
2022/05/08 12:07:23;;;;;;;5.18;2.80;;;;;;;;;;6241883;28;20038;-83
2022/05/08 12:10:36;;;;;;;5.40;3.60;;;;;;;;;;6237697;28;20099;-83
2022/05/08 12:13:55;;;;;;;6.13;3.00;;;;;;;;;;6200099;28;20060;-83
2022/05/08 12:17:01;;;;;;;6.45;3.25;;;;;;;;;;6191864;28;20079;-83
2022/05/08 12:20:08;;;;;;;6.03;2.75;;;;;;;;;;6193186;28;20026;-83
2022/05/08 12:23:10;;;;;;;11.00;3.28;;;;;;;;;;6215828;28;20057;-84
2022/05/08 12:26:10;;;;;;;4.75;2.90;;;;;;;;;;6217047;28;20397;-83
2022/05/08 12:29:10;;;;;;;;;;;;;;;;;;6199755;28;20066;-83
2022/05/08 12:32:11;;;;;;;4.88;3.20;;;;;;;;;;6189653;28;19917;-83
2022/05/08 12:35:12;;;;;;;5.33;2.73;;;;;;;;;;6192642;28;20041;-83
2022/05/08 12:38:12;;;;;;;3.97;2.65;;;;;;;;;;6199195;28;20018;-83
2022/05/08 12:41:12;;;;;;;6.40;3.20;;;;;;;;;;6200940;28;20104;-83
2022/05/08 12:44:12;;;;;;;;;;;;;;;;;;6223349;28;20272;-83
2022/05/08 12:47:13;;;;;;;5.22;2.65;;;;;;;;;;6240148;28;19905;-83
2022/05/08 12:50:14;;;;;;;2.85;2.00;;;;;;;;;;6240033;28;20021;-83
2022/05/08 12:53:14;;;;;;;;;;;;;;;;;;6240320;28;20379;-83
2022/05/08 12:56:16;;;;;;;5.82;2.78;;;;;;;;;;6221283;28;19906;-83
2022/05/08 13:02:35;;;;;;;5.45;2.63;;;;;;;;;;6191470;28;20034;-83
2022/05/08 13:05:36;;;;;;;4.63;2.43;;;;;;;;;;6191787;28;20029;-83
2022/05/08 13:08:36;;;;;;;5.75;3.22;;;;;;;;;;6205155;28;20053;-83
2022/05/08 13:11:36;;;;;;;3.87;2.23;;;;;;;;;;6240574;28;20792;-83
2022/05/08 13:14:37;;;;;;;5.27;3.17;;;;;;;;;;6212497;28;20113;-83
2022/05/08 13:17:37;;;;;;;7.80;3.07;;;;;;;;;;6199430;28;20430;-83
2022/05/08 13:20:37;;;;;;;5.50;2.47;;;;;;;;;;6203432;28;20030;-83
2022/05/08 13:23:38;;;;;;;3.57;2.60;;;;;;;;;;6194624;28;20030;-83
2022/05/08 13:26:38;;;;;;;6.30;2.30;;;;;;;;;;6202341;28;20038;-83
2022/05/08 13:29:38;;;;;;;3.63;2.00;;;;;;;;;;6202143;28;20387;-83
2022/05/08 13:32:39;;;;;;;6.47;2.83;;;;;;;;;;6203002;28;20075;-83
2022/05/08 13:35:40;;;;;;;4.70;1.77;;;;;;;;;;6220177;28;20025;-84
2022/05/08 13:38:42;;;;;;;3.20;2.13;;;;;;;;;;6237811;28;20026;-83
2022/05/08 13:41:42;;;;;;;6.32;2.00;;;;;;;;;;6256269;28;20066;-83
2022/05/08 13:44:42;;;;;;;3.22;2.75;;;;;;;;;;6349003;28;20095;-84
2022/05/08 13:47:43;;;;;;;3.67;2.30;;;;;;;;;;6330706;28;20016;-83
2022/05/08 13:50:43;;;;;;;5.43;3.00;;;;;;;;;;6223191;28;20026;-83
2022/05/08 13:53:44;;;;;;;5.88;1.92;;;;;;;;;;6194632;28;20054;-83
2022/05/08 13:56:45;;;;;;;3.80;2.10;;;;;;;;;;6215922;28;20051;-84
2022/05/08 13:59:46;;;;;;;4.07;2.10;;;;;;;;;;6225185;28;20385;-83
2022/05/08 14:02:46;;;;;;;5.77;2.00;;;;;;;;;;6219521;28;20030;-83
2022/05/08 14:05:47;;;;;;;5.53;2.20;;;;;;;;;;6219950;28;20018;-83
2022/05/08 14:08:47;;;;;;;4.15;2.47;;;;;;;;;;6218184;28;20322;-83
2022/05/08 14:11:54;;;;;;;4.23;2.17;;;;;;;;;;6225716;28;20544;-83
2022/05/08 14:14:54;;;;;;;6.10;2.17;;;;;;;;;;6226310;28;20053;-83
2022/05/08 14:17:54;;;;;;;4.03;2.30;;;;;;;;;;6219367;28;20043;-84
2022/05/08 14:20:55;;;;;;;8.97;5.10;;;;;;;;;;6201322;28;20025;-84
2022/05/08 14:23:55;;;;;;;15.60;6.40;;;;;;;;;;6212196;28;20060;-83
2022/05/08 14:26:55;;;;;;;16.00;8.13;;;;;;;;;;6240639;28;20019;-84
2022/05/08 14:29:56;;;;;;;8.87;6.07;;;;;;;;;;6204275;28;20136;-84
2022/05/08 14:36:15;;;;;;;9.80;5.88;;;;;;;;;;6215655;28;20033;-83
2022/05/08 14:39:16;;;;;;;9.43;5.53;;;;;;;;;;6195262;28;20038;-84
2022/05/08 14:42:16;;;;;;;8.57;5.60;;;;;;;;;;6215293;28;20503;-84
2022/05/08 14:45:16;;;;;;;8.73;4.93;;;;;;;;;;6216437;28;20483;-83
2022/05/08 14:48:18;;;;;;;7.63;4.83;;;;;;;;;;6220653;28;20033;-84
2022/05/08 14:51:18;;;;;;;9.07;5.75;;;;;;;;;;6288349;28;20105;-84
2022/05/08 14:54:18;;;;;;;9.10;5.43;;;;;;;;;;6222344;28;20018;-83
2022/05/08 14:57:18;;;;;;;9.23;5.47;;;;;;;;;;6201118;28;20023;-83
2022/05/08 15:00:19;;;;;;;10.80;5.63;;;;;;;;;;6236995;28;20026;-83
2022/05/08 15:03:19;;;;;;;10.10;5.53;;;;;;;;;;6264876;28;20022;-83
2022/05/08 15:06:21;;;;;;;8.37;5.37;;;;;;;;;;6222614;28;20084;-83
2022/05/08 15:09:24;;;;;;;8.88;5.20;;;;;;;;;;6240350;28;20048;-83
2022/05/08 15:12:24;;;;;;;9.07;5.07;;;;;;;;;;6216439;28;20025;-84
2022/05/08 15:15:25;;;;;;;5.97;3.73;;;;;;;;;;6245297;28;20385;-84
2022/05/08 15:21:44;;;;;;;6.43;4.03;;;;;;;;;;6220235;28;20443;-83
2022/05/08 15:24:45;;;;;;;12.75;4.50;;;;;;;;;;6288065;28;20029;-84
2022/05/08 15:27:45;;;;;;;6.63;3.77;;;;;;;;;;6258762;28;20026;-84
2022/05/08 15:30:45;;;;;;;6.87;4.30;;;;;;;;;;6206964;28;20134;-85
2022/05/08 15:33:45;;;;;;;8.17;4.63;;;;;;;;;;6202316;28;20055;-84
2022/05/08 15:36:46;;;;;;;7.77;4.03;;;;;;;;;;6205432;28;20053;-84
2022/05/08 15:39:46;;;;;;;5.82;3.90;;;;;;;;;;6241915;28;20106;-84
2022/05/08 15:42:47;;;;;;;7.80;4.30;;;;;;;;;;6219018;28;20044;-84
2022/05/08 15:45:47;;;;;;;6.33;3.73;;;;;;;;;;6219547;28;20059;-84
2022/05/08 15:48:48;;;;;;;9.53;3.97;;;;;;;;;;6218149;28;20033;-83
2022/05/08 15:51:48;;;;;;;9.20;4.50;;;;;;;;;;6219568;28;20119;-85
2022/05/08 15:54:48;;;;;;;7.30;3.93;;;;;;;;;;6229311;28;20014;-83
2022/05/08 15:57:48;;;;;;;9.30;4.43;;;;;;;;;;6219475;28;20039;-84
2022/05/08 16:00:50;;;;;;;6.17;3.63;;;;;;;;;;6259365;28;20048;-84
2022/05/08 16:03:50;;;;;;;7.68;3.67;;;;;;;;;;6214680;28;20026;-84
2022/05/08 16:06:53;;;;;;;5.00;3.40;;;;;;;;;;6203062;28;20030;-84
2022/05/08 16:09:53;;;;;;;7.85;4.30;;;;;;;;;;6209412;28;20403;-85
2022/05/08 16:26:09;;;;;;;11.75;5.57;;;;;;;;;;6216716;28;20488;-83
2022/05/08 16:29:10;;;;;;;8.87;5.47;;;;;;;;;;6216122;28;20051;-83
2022/05/08 16:32:10;;;;;;;7.77;4.67;;;;;;;;;;6220864;28;20014;-83
2022/05/08 16:35:11;;;;;;;10.30;6.03;;;;;;;;;;6221479;28;20018;-84
2022/05/08 16:38:13;;;;;;;18.00;11.93;;;;;;;;;;6213207;28;20052;-84
2022/05/08 16:41:13;;;;;;;11.30;7.38;;;;;;;;;;6212991;28;20024;-84
2022/05/08 16:44:14;;;;;;;11.80;7.10;;;;;;;;;;6215461;28;20040;-84
2022/05/08 16:47:16;;;;;;;11.13;5.25;;;;;;;;;;6216431;28;20404;-84
2022/05/08 16:50:16;;;;;;;8.77;6.70;;;;;;;;;;6202412;28;20087;-84
2022/05/08 16:53:16;;;;;;;13.17;7.67;;;;;;;;;;6218044;28;20128;-83
2022/05/08 16:56:16;;;;;;;12.10;6.87;;;;;;;;;;6210003;28;20033;-84
2022/05/08 16:59:17;;;;;;;11.10;5.93;;;;;;;;;;6190520;28;20133;-87
2022/05/08 17:02:17;;;;;;;13.40;7.33;;;;;;;;;;6199845;28;20034;-86
2022/05/08 17:05:18;;;;;;;15.53;7.03;;;;;;;;;;6206147;28;20034;-87
2022/05/08 17:08:18;;;;;;;15.63;6.77;;;;;;;;;;6235987;28;20057;-86
2022/05/08 17:11:18;;;;;;;12.00;6.87;;;;;;;;;;6221043;28;20041;-86
2022/05/08 17:14:19;;;;;;;16.63;6.27;;;;;;;;;;6208488;28;20049;-86
2022/05/08 17:17:19;;;;;;;17.13;8.50;;;;;;;;;;6182039;28;20087;-85
2022/05/08 17:20:20;;;;;;;22.60;12.13;;;;;;;;;;6199636;28;20022;-85
2022/05/08 17:23:20;;;;;;;18.20;9.00;;;;;;;;;;6206085;28;20034;-86
2022/05/08 17:26:20;;;;;;;20.07;9.27;;;;;;;;;;6221859;28;20060;-85
2022/05/08 17:29:24;;;;;;;13.70;6.90;;;;;;;;;;6200630;28;20022;-85
2022/05/08 17:32:28;;;;;;;7.82;4.38;;;;;;;;;;6207252;28;20466;-85
2022/05/08 17:35:29;;;;;;;11.95;4.30;;;;;;;;;;6209164;28;20034;-85
2022/05/08 17:38:29;;;;;;;10.10;5.07;;;;;;;;;;6280105;28;20030;-85
2022/05/08 17:41:29;;;;;;;9.53;4.73;;;;;;;;;;6208860;28;20049;-85
2022/05/08 17:44:29;;;;;;;8.83;4.23;;;;;;;;;;6205626;28;20120;-85
2022/05/08 17:47:30;;;;;;;14.63;4.80;;;;;;;;;;6206626;28;20029;-84
2022/05/08 17:50:30;;;;;;;8.23;4.53;;;;;;;;;;6185664;28;20435;-84
2022/05/08 17:53:30;;;;;;;10.03;4.57;;;;;;;;;;6203684;28;20409;-84
2022/05/08 17:56:30;;;;;;;8.63;4.87;;;;;;;;;;6197441;28;20024;-84
2022/05/08 17:59:31;;;;;;;10.00;5.97;;;;;;;;;;6201771;28;20034;-84
2022/05/08 18:05:59;;;;;;;7.20;3.70;;;;;;;;;;6196657;28;20038;-84
2022/05/08 18:08:59;;;;;;;7.43;4.28;;;;;;;;;;6197636;28;20073;-84
2022/05/08 18:12:00;;;;;;;8.60;4.87;;;;;;;;;;6180365;28;20386;-84
2022/05/08 18:15:01;;;;;;;5.90;3.77;;;;;;;;;;6181659;28;20006;-84
2022/05/08 18:18:01;;;;;;;7.55;3.95;;;;;;;;;;6196556;28;20022;-84
2022/05/08 18:21:02;;;;;;;9.90;4.67;;;;;;;;;;6196148;28;20023;-85
2022/05/08 18:24:02;;;;;;;14.30;5.33;;;;;;;;;;6198260;28;20018;-85
2022/05/08 18:27:03;;;;;;;16.90;6.97;;;;;;;;;;6196358;28;20037;-85
2022/05/08 18:30:04;;;;;;;16.13;7.30;;;;;;;;;;6196050;28;20026;-84
2022/05/08 18:33:05;;;;;;;24.27;9.70;;;;;;;;;;6195240;28;20026;-84
2022/05/08 18:36:06;;;;;;;13.27;6.35;;;;;;;;;;6187190;28;20015;-85
2022/05/08 18:39:06;;;;;;;11.07;5.53;;;;;;;;;;6178099;28;20031;-85
2022/05/08 18:42:06;;;;;;;11.10;5.07;;;;;;;;;;6187346;28;20382;-85
2022/05/08 18:45:07;;;;;;;13.17;4.77;;;;;;;;;;6173415;28;20105;-85
2022/05/08 18:48:11;;;;;;;11.13;4.50;;;;;;;;;;6168965;28;20042;-85
2022/05/08 18:51:11;;;;;;;9.98;4.45;;;;;;;;;;6194031;28;20362;-85